Alexander, Kansas
Current Conditions -  °F | °C
As of 7:55 PM on Sunday 21 Dec 2014 (Local Time) from KHYS Reporting Station
Overcast Overcast  
Wind Chill: 35°   Ceiling: 11000
Heat Index: 41°   Visibility: 7mi
Dew Point: 34°   Wind: 10mph
Humidity: 76%   Direction: 170°S
Pressure: 29.6"   Gusts: NA
Location:  38.47°N, 99.55°W
Report Text: KHYS 220155Z AUTO 17009KT 7SM SCT022 OVC110 05/01 A2960 RMK AO1
Loading
Personal Weather Stations






























Interactive Weather Map New forecast layout! Learn more

10-Day Weather Forecast

Advertisements
Track Severe Weather on mobile